createdAt,value
2019-06-07T00:02:08.201Z,82.21
2019-06-07T00:04:43.284Z,82.14
2019-06-07T00:07:21.749Z,82.94
2019-06-07T00:09:51.783Z,83.50
2019-06-07T00:12:23.849Z,83.03
2019-06-07T00:14:55.895Z,82.58
2019-06-07T00:17:30.505Z,82.18
2019-06-07T00:20:04.150Z,82.85
2019-06-07T00:22:35.811Z,82.50
2019-06-07T00:25:12.068Z,83.07
2019-06-07T00:27:43.929Z,82.74
2019-06-07T00:30:50.784Z,82.28
2019-06-07T00:33:21.097Z,82.96
2019-06-07T00:35:53.244Z,82.01
2019-06-07T00:38:26.097Z,83.42
2019-06-07T00:41:00.920Z,82.35
2019-06-07T00:43:33.295Z,82.67
2019-06-07T00:46:18.135Z,82.83
2019-06-07T00:48:51.847Z,81.61
2019-06-07T00:51:26.854Z,81.40
2019-06-07T00:53:58.996Z,81.80
2019-06-07T00:56:31.065Z,81.14
2019-06-07T00:59:11.211Z,82.11
2019-06-07T01:01:44.254Z,81.54
2019-06-07T01:04:21.270Z,81.92
2019-06-07T01:06:55.923Z,82.15
2019-06-07T01:09:30.261Z,82.79
2019-06-07T01:12:02.276Z,82.70
2019-06-07T01:14:34.271Z,83.18
2019-06-07T01:17:40.086Z,83.07
2019-06-07T01:20:02.373Z,82.87
2019-06-07T01:22:37.840Z,83.40
2019-06-07T01:25:10.439Z,83.37
2019-06-07T01:27:41.645Z,82.97
2019-06-07T01:30:35.921Z,83.58
2019-06-07T01:33:10.998Z,82.31
2019-06-07T01:35:45.290Z,82.87
2019-06-07T01:38:21.985Z,82.52
2019-06-07T01:40:56.104Z,81.65
2019-06-07T01:43:30.859Z,81.14
2019-06-07T01:46:01.334Z,80.33
2019-06-07T01:48:48.981Z,80.05
2019-06-07T01:51:12.084Z,79.11
2019-06-07T01:53:45.260Z,78.09
2019-06-07T01:56:22.555Z,78.62
2019-06-07T01:58:56.259Z,78.63
2019-06-07T02:01:35.070Z,78.12
2019-06-07T02:04:06.316Z,77.71
2019-06-07T02:06:41.333Z,77.80
2019-06-07T02:09:16.635Z,77.42
2019-06-07T02:11:51.370Z,77.54
2019-06-07T02:14:27.374Z,76.91
2019-06-07T02:17:01.389Z,77.05
2019-06-07T02:19:34.667Z,77.22
2019-06-07T02:22:07.560Z,76.65
2019-06-07T02:24:40.455Z,77.06
2019-06-07T02:27:14.424Z,77.05
2019-06-07T02:29:47.080Z,76.84
2019-06-07T02:32:18.816Z,76.68
2019-06-07T02:34:52.259Z,76.64
2019-06-07T02:37:31.582Z,76.43
2019-06-07T02:40:01.918Z,76.77
2019-06-07T02:42:41.866Z,76.44
2019-06-07T02:45:11.065Z,76.12
2019-06-07T02:48:01.815Z,76.33
2019-06-07T02:50:39.026Z,76.43
2019-06-07T02:53:11.543Z,76.29
2019-06-07T02:56:33.201Z,76.42
2019-06-07T02:58:17.887Z,75.95
2019-06-07T03:01:06.478Z,76.29
2019-06-07T03:03:32.615Z,76.17
2019-06-07T03:06:14.554Z,76.36
2019-06-07T03:08:47.658Z,75.97
2019-06-07T03:11:24.354Z,75.97
2019-06-07T03:13:57.323Z,75.99
2019-06-07T03:16:37.359Z,75.66
2019-06-07T03:19:18.397Z,75.76
2019-06-07T03:21:50.409Z,75.86
2019-06-07T03:24:29.599Z,75.47
2019-06-07T03:29:40.982Z,75.28
2019-06-07T03:32:11.888Z,74.92
2019-06-07T03:34:44.846Z,74.68
2019-06-07T03:37:16.063Z,74.62
2019-06-07T03:39:49.745Z,74.67
2019-06-07T03:42:21.978Z,74.69
2019-06-07T03:44:55.006Z,73.88
2019-06-07T03:47:32.378Z,73.85
2019-06-07T03:50:05.679Z,74.25
2019-06-07T03:52:41.630Z,74.10
2019-06-07T03:55:40.418Z,73.89
2019-06-07T04:00:51.262Z,73.60
2019-06-07T04:03:33.387Z,73.18
2019-06-07T04:06:01.128Z,73.27
2019-06-07T04:08:41.382Z,72.94
2019-06-07T04:11:14.149Z,72.99
2019-06-07T04:13:46.075Z,73.16
2019-06-07T04:16:18.182Z,73.11
2019-06-07T04:18:51.101Z,73.10
2019-06-07T04:21:24.081Z,73.09
2019-06-07T04:23:56.954Z,73.30
2019-06-07T04:26:31.387Z,72.57
2019-06-07T04:29:32.364Z,72.42
2019-06-07T04:31:43.129Z,72.76
2019-06-07T04:34:16.889Z,72.89
2019-06-07T04:36:59.147Z,72.76
2019-06-07T04:39:26.467Z,72.61
2019-06-07T04:42:01.135Z,72.33
2019-06-07T04:44:39.354Z,72.68
2019-06-07T04:47:15.809Z,72.18
2019-06-07T04:49:49.747Z,71.94
2019-06-07T04:52:23.426Z,71.19
2019-06-07T04:54:56.996Z,71.24
2019-06-07T04:57:34.845Z,71.44
2019-06-07T05:02:51.943Z,70.50
2019-06-07T05:05:27.052Z,71.27
2019-06-07T05:07:58.257Z,71.04
2019-06-07T05:10:35.086Z,71.12
2019-06-07T05:13:08.517Z,71.07
2019-06-07T05:15:42.354Z,70.92
2019-06-07T05:18:14.184Z,70.74
2019-06-07T05:20:46.975Z,70.41
2019-06-07T05:24:00.137Z,70.37
2019-06-07T05:26:04.726Z,70.52
2019-06-07T05:28:42.316Z,70.21
2019-06-07T05:31:11.743Z,70.32
2019-06-07T05:33:44.430Z,69.51
2019-06-07T05:36:16.376Z,69.81
2019-06-07T05:38:48.411Z,69.64
2019-06-07T05:41:21.713Z,69.42
2019-06-07T05:44:12.141Z,69.46
2019-06-07T05:46:33.819Z,69.15
2019-06-07T05:49:06.471Z,69.32
2019-06-07T05:51:41.915Z,69.37
2019-06-07T05:54:14.840Z,68.73
2019-06-07T05:56:47.498Z,68.50
2019-06-07T05:59:23.285Z,67.93
2019-06-07T06:02:03.192Z,68.23
2019-06-07T06:04:29.789Z,68.07
2019-06-07T06:07:03.849Z,67.92
2019-06-07T06:09:36.452Z,67.22
2019-06-07T06:12:11.459Z,67.14
2019-06-07T06:14:46.891Z,67.41
2019-06-07T06:17:18.610Z,67.21
2019-06-07T06:19:53.586Z,67.83
2019-06-07T06:22:28.170Z,67.54
2019-06-07T06:25:30.751Z,66.56
2019-06-07T06:28:10.093Z,66.68
2019-06-07T06:30:25.221Z,66.79
2019-06-07T06:32:58.753Z,66.97
2019-06-07T06:35:33.042Z,66.21
2019-06-07T06:38:05.927Z,66.88
2019-06-07T06:40:44.307Z,66.95
2019-06-07T06:43:16.152Z,66.93
2019-06-07T06:45:55.813Z,67.17
2019-06-07T06:48:29.405Z,68.02
2019-06-07T06:51:00.949Z,67.66
2019-06-07T06:53:34.900Z,67.40
2019-06-07T06:56:10.397Z,67.68
2019-06-07T06:59:33.972Z,67.84
2019-06-07T07:01:20.523Z,67.47
2019-06-07T07:04:10.559Z,66.67
2019-06-07T07:06:29.782Z,67.68
2019-06-07T07:09:05.783Z,68.70
2019-06-07T07:11:56.310Z,69.00
2019-06-07T07:14:15.528Z,68.68
2019-06-07T07:16:53.632Z,67.87
2019-06-07T07:19:21.905Z,68.11
2019-06-07T07:21:55.602Z,67.41
2019-06-07T07:24:29.052Z,67.22
2019-06-07T07:27:02.082Z,66.78
2019-06-07T07:29:33.720Z,66.69
2019-06-07T07:32:06.250Z,67.17
2019-06-07T07:34:38.102Z,66.56
2019-06-07T07:37:12.163Z,66.48
2019-06-07T07:39:48.113Z,65.98
2019-06-07T07:42:21.501Z,65.77
2019-06-07T07:44:55.121Z,64.94
2019-06-07T07:47:27.403Z,65.78
2019-06-07T07:50:01.861Z,66.32
2019-06-07T07:52:40.205Z,64.72
2019-06-07T07:55:16.641Z,64.54
2019-06-07T07:57:58.124Z,64.55
2019-06-07T08:00:50.216Z,63.28
2019-06-07T08:03:04.579Z,63.38
2019-06-07T08:05:42.849Z,63.25
2019-06-07T08:08:11.418Z,61.50
2019-06-07T08:10:44.375Z,61.46
2019-06-07T08:13:26.949Z,59.57
2019-06-07T08:15:54.408Z,60.14
2019-06-07T08:18:26.699Z,59.68
2019-06-07T08:21:21.560Z,59.48
2019-06-07T08:23:36.221Z,57.64
2019-06-07T08:26:10.307Z,56.30
2019-06-07T08:28:44.229Z,53.83
2019-06-07T08:31:16.914Z,55.36
2019-06-07T08:33:50.197Z,56.93
2019-06-07T08:36:40.847Z,55.27
2019-06-07T08:39:05.683Z,55.18
2019-06-07T08:41:32.525Z,56.89
2019-06-07T08:44:22.669Z,57.53
2019-06-07T08:46:41.591Z,55.70
2019-06-07T08:49:15.558Z,55.96
2019-06-07T08:51:47.575Z,55.86
2019-06-07T08:54:23.001Z,54.38
2019-06-07T08:57:06.555Z,52.23
2019-06-07T08:59:28.490Z,52.78
2019-06-07T09:02:19.985Z,52.48
2019-06-07T09:04:37.881Z,52.26
2019-06-07T09:07:19.212Z,51.02
2019-06-07T09:09:43.719Z,50.58
2019-06-07T09:12:17.607Z,50.37
2019-06-07T09:15:07.317Z,52.00
2019-06-07T09:17:24.930Z,53.24
2019-06-07T09:19:59.033Z,52.46
2019-06-07T09:22:31.667Z,51.21
2019-06-07T09:25:20.069Z,54.72
2019-06-07T09:27:41.970Z,53.63
2019-06-07T09:30:39.457Z,51.84
2019-06-07T09:33:11.454Z,51.30
2019-06-07T09:35:46.041Z,50.21
2019-06-07T09:38:25.676Z,49.69
2019-06-07T09:40:53.630Z,49.68
2019-06-07T09:46:04.028Z,53.09
2019-06-07T09:49:09.713Z,52.16
2019-06-07T09:51:19.109Z,49.64
2019-06-07T09:53:43.787Z,50.86
2019-06-07T09:56:17.759Z,50.56
2019-06-07T09:58:53.964Z,50.94
2019-06-07T10:01:27.077Z,50.58
2019-06-07T10:04:04.677Z,50.06
2019-06-07T10:06:34.934Z,48.54
2019-06-07T10:11:43.706Z,49.26
2019-06-07T10:14:17.746Z,49.97
2019-06-07T10:16:51.154Z,50.50
2019-06-07T10:19:26.616Z,49.74
2019-06-07T10:21:59.168Z,49.60
2019-06-07T10:24:30.980Z,48.19
2019-06-07T10:27:04.038Z,48.55
2019-06-07T10:29:36.954Z,51.04
2019-06-07T10:32:09.237Z,50.76
2019-06-07T10:34:43.237Z,50.01
2019-06-07T10:37:16.091Z,49.41
2019-06-07T10:39:49.395Z,50.24
2019-06-07T10:42:21.006Z,48.19
2019-06-07T10:44:56.721Z,46.27
2019-06-07T10:47:29.130Z,47.76
2019-06-07T10:50:02.275Z,48.35
2019-06-07T10:52:45.336Z,48.36
2019-06-07T10:55:20.650Z,48.02
2019-06-07T10:57:53.728Z,46.26
2019-06-07T11:00:27.291Z,47.39
2019-06-07T11:02:59.051Z,48.00
2019-06-07T11:05:33.981Z,47.05
2019-06-07T11:08:06.222Z,46.37
2019-06-07T11:10:39.697Z,47.20
2019-06-07T11:13:12.507Z,47.95
2019-06-07T11:15:45.376Z,47.74
2019-06-07T11:18:18.918Z,47.19
2019-06-07T11:20:52.575Z,46.47
2019-06-07T11:23:26.311Z,47.55
2019-06-07T11:25:59.493Z,47.94
2019-06-07T11:28:32.169Z,47.91
2019-06-07T11:31:08.432Z,48.29
2019-06-07T11:33:41.217Z,47.36
2019-06-07T11:36:15.501Z,47.57
2019-06-07T11:38:49.165Z,47.67
2019-06-07T11:41:24.036Z,47.57
2019-06-07T11:43:59.806Z,47.46
2019-06-07T11:46:32.720Z,48.68
2019-06-07T11:49:08.235Z,47.83
2019-06-07T11:51:41.798Z,47.02
2019-06-07T11:54:14.074Z,47.66
2019-06-07T11:56:48.222Z,48.20
2019-06-07T11:59:21.418Z,48.05
2019-06-07T12:01:54.414Z,46.92
2019-06-07T12:04:34.479Z,46.99
2019-06-07T12:07:03.719Z,48.44
2019-06-07T12:09:37.737Z,47.61
2019-06-07T12:12:10.267Z,47.82
2019-06-07T12:14:44.409Z,48.26
2019-06-07T12:17:17.640Z,47.54
2019-06-07T12:19:50.468Z,48.50
2019-06-07T12:22:23.474Z,49.33
2019-06-07T12:24:57.561Z,50.67
2019-06-07T12:27:30.595Z,50.41
2019-06-07T12:30:27.690Z,50.40
2019-06-07T12:32:56.735Z,50.08
2019-06-07T12:35:32.581Z,50.38
2019-06-07T12:38:05.713Z,50.46
2019-06-07T12:40:39.376Z,50.12
2019-06-07T12:43:12.395Z,49.51
2019-06-07T12:45:46.158Z,48.73
2019-06-07T12:48:23.756Z,48.54
2019-06-07T12:50:53.729Z,49.00
2019-06-07T12:53:29.177Z,47.12
2019-06-07T12:56:03.476Z,46.56
2019-06-07T12:58:39.447Z,46.15
2019-06-07T13:01:11.499Z,46.22
2019-06-07T13:03:47.430Z,46.25
2019-06-07T13:06:23.708Z,47.25
2019-06-07T13:08:56.999Z,49.19
2019-06-07T13:11:31.786Z,49.10
2019-06-07T13:14:03.866Z,48.34
2019-06-07T13:16:35.826Z,48.66
2019-06-07T13:19:08.867Z,48.13
2019-06-07T13:21:40.922Z,49.69
2019-06-07T13:24:16.228Z,48.37
2019-06-07T13:26:47.932Z,47.32
2019-06-07T13:29:21.091Z,47.25
2019-06-07T13:31:56.578Z,47.52
2019-06-07T13:34:29.071Z,49.55
2019-06-07T13:37:01.942Z,49.04
2019-06-07T13:39:33.525Z,47.91
2019-06-07T13:42:06.440Z,47.84
2019-06-07T13:44:39.960Z,47.89
2019-06-07T13:47:14.114Z,48.12
2019-06-07T13:49:48.007Z,47.74
2019-06-07T13:52:21.739Z,47.82
2019-06-07T13:54:54.034Z,48.75
2019-06-07T13:57:28.178Z,47.93
2019-06-07T14:00:00.063Z,48.06
2019-06-07T14:02:42.665Z,48.58
2019-06-07T14:05:18.996Z,47.15
2019-06-07T14:07:52.871Z,48.42
2019-06-07T14:10:31.873Z,48.45
2019-06-07T14:13:06.423Z,48.48
2019-06-07T14:15:38.952Z,48.49
2019-06-07T14:18:13.987Z,49.02
2019-06-07T14:20:48.214Z,49.17
2019-06-07T14:23:40.135Z,48.35
2019-06-07T14:25:57.979Z,48.66
2019-06-07T14:28:33.724Z,48.30
2019-06-07T14:31:06.952Z,48.32
2019-06-07T14:33:39.992Z,47.83
2019-06-07T14:36:15.911Z,48.13
2019-06-07T14:38:47.345Z,46.92
2019-06-07T14:41:19.133Z,46.99
2019-06-07T14:43:51.209Z,47.41
2019-06-07T14:46:28.188Z,47.55
2019-06-07T14:49:00.234Z,47.09
2019-06-07T14:51:33.846Z,47.69
2019-06-07T14:54:11.377Z,47.90
2019-06-07T14:56:43.206Z,47.22
2019-06-07T14:59:18.159Z,47.22
2019-06-07T15:01:52.475Z,47.13
2019-06-07T15:04:28.582Z,48.00
2019-06-07T15:07:03.550Z,46.44
2019-06-07T15:09:37.133Z,47.40
2019-06-07T15:12:24.671Z,47.32
2019-06-07T15:14:47.087Z,46.87
2019-06-07T15:17:19.567Z,47.07
2019-06-07T15:19:53.663Z,46.05
2019-06-07T15:22:26.301Z,46.67
2019-06-07T15:25:02.404Z,46.93
2019-06-07T15:27:45.859Z,46.76
2019-06-07T15:30:18.467Z,46.72
2019-06-07T15:32:50.465Z,46.44
2019-06-07T15:35:23.751Z,45.78
2019-06-07T15:37:57.369Z,46.32
2019-06-07T15:40:30.906Z,46.86
2019-06-07T15:43:02.483Z,47.60
2019-06-07T15:45:35.619Z,48.11
2019-06-07T15:48:09.493Z,47.51
2019-06-07T15:50:42.700Z,46.47
2019-06-07T15:53:17.238Z,46.84
2019-06-07T15:55:49.440Z,46.70
2019-06-07T15:58:24.214Z,47.17
2019-06-07T16:00:59.304Z,47.50
2019-06-07T16:03:31.591Z,47.93
2019-06-07T16:06:05.900Z,47.57
2019-06-07T16:08:38.641Z,48.42
2019-06-07T16:11:14.204Z,47.87
2019-06-07T16:13:46.640Z,47.71
2019-06-07T16:16:20.415Z,48.24
2019-06-07T16:18:51.732Z,48.00
2019-06-07T16:21:27.403Z,48.71
2019-06-07T16:24:02.559Z,47.80
2019-06-07T16:26:36.077Z,48.37
2019-06-07T16:29:10.066Z,48.30
2019-06-07T16:31:45.061Z,48.07
2019-06-07T16:34:17.790Z,48.58
2019-06-07T16:36:49.986Z,48.25
2019-06-07T16:39:24.572Z,49.18
2019-06-07T16:41:56.832Z,49.27
2019-06-07T16:44:28.063Z,48.97
2019-06-07T16:47:03.481Z,49.29
2019-06-07T16:49:38.678Z,49.67
2019-06-07T16:52:14.550Z,49.03
2019-06-07T16:54:47.950Z,49.16
2019-06-07T16:57:20.955Z,48.95
2019-06-07T16:59:53.011Z,49.08
2019-06-07T17:02:25.120Z,49.46
2019-06-07T17:04:57.813Z,49.33
2019-06-07T17:07:42.289Z,49.48
2019-06-07T17:10:20.444Z,49.36
2019-06-07T17:12:51.904Z,49.97
2019-06-07T17:15:25.992Z,50.30
2019-06-07T17:17:58.025Z,50.40
2019-06-07T17:20:33.867Z,50.79
2019-06-07T17:23:09.396Z,50.29
2019-06-07T17:25:43.951Z,50.70
2019-06-07T17:28:17.785Z,50.58
2019-06-07T17:30:51.989Z,50.89
2019-06-07T17:33:24.304Z,50.99
2019-06-07T17:35:59.798Z,51.23
2019-06-07T17:38:34.043Z,51.25
2019-06-07T17:41:08.276Z,51.27
2019-06-07T17:43:54.777Z,51.20
2019-06-07T17:46:16.363Z,51.42
2019-06-07T17:48:47.732Z,51.50
2019-06-07T17:51:19.648Z,51.94
2019-06-07T17:53:55.016Z,52.39
2019-06-07T17:56:26.250Z,52.20
2019-06-07T17:58:57.890Z,52.36
2019-06-07T18:01:41.183Z,52.63
2019-06-07T18:04:06.891Z,52.58
2019-06-07T18:06:40.173Z,53.32
2019-06-07T18:09:16.826Z,53.48
2019-06-07T18:11:49.984Z,53.71
2019-06-07T18:14:25.513Z,54.06
2019-06-07T18:16:58.255Z,54.16
2019-06-07T18:19:29.546Z,54.33
2019-06-07T18:22:01.486Z,54.48
2019-06-07T18:24:36.270Z,54.48
2019-06-07T18:27:08.673Z,54.57
2019-06-07T18:29:40.456Z,54.32
2019-06-07T18:32:13.788Z,54.68
2019-06-07T18:34:46.697Z,54.74
2019-06-07T18:37:18.509Z,55.06
2019-06-07T18:39:51.112Z,55.46
2019-06-07T18:42:23.537Z,55.33
2019-06-07T18:44:56.520Z,55.98
2019-06-07T18:47:30.452Z,55.92
2019-06-07T18:50:18.602Z,55.86
2019-06-07T18:52:52.672Z,55.76
2019-06-07T18:55:28.203Z,56.13
2019-06-07T18:57:59.662Z,56.90
2019-06-07T19:00:34.667Z,56.98
2019-06-07T19:03:08.817Z,57.19
2019-06-07T19:05:41.902Z,57.43
2019-06-07T19:08:15.549Z,57.25
2019-06-07T19:10:48.968Z,57.42
2019-06-07T19:13:23.534Z,57.98
2019-06-07T19:15:57.474Z,58.17
2019-06-07T19:18:30.542Z,57.82
2019-06-07T19:21:02.636Z,58.04
2019-06-07T19:23:37.527Z,57.68
2019-06-07T19:26:11.666Z,57.23
2019-06-07T19:28:45.731Z,57.33
2019-06-07T19:31:19.840Z,55.75
2019-06-07T19:33:53.043Z,55.74
2019-06-07T19:36:24.835Z,57.32
2019-06-07T19:38:57.847Z,57.86
2019-06-07T19:41:30.849Z,60.42
2019-06-07T19:44:05.414Z,61.42
2019-06-07T19:46:38.719Z,63.04
2019-06-07T19:49:10.743Z,61.55
2019-06-07T19:51:42.781Z,60.33
2019-06-07T19:54:14.871Z,60.94
2019-06-07T19:56:49.128Z,60.22
2019-06-07T19:59:21.765Z,58.94
2019-06-07T20:01:55.750Z,58.17
2019-06-07T20:04:30.588Z,57.30
2019-06-07T20:07:05.214Z,57.49
2019-06-07T20:09:36.925Z,57.53
2019-06-07T20:12:12.403Z,57.40
2019-06-07T20:14:44.880Z,56.82
2019-06-07T20:17:17.909Z,57.99
2019-06-07T20:19:54.129Z,57.67
2019-06-07T20:22:26.003Z,56.54
2019-06-07T20:24:58.848Z,56.37
2019-06-07T20:27:34.821Z,57.74
2019-06-07T20:30:16.909Z,56.54
2019-06-07T20:32:48.929Z,55.96
2019-06-07T20:35:27.377Z,55.58
2019-06-07T20:38:06.983Z,58.17
2019-06-07T20:40:39.044Z,61.26
2019-06-07T20:43:12.082Z,62.15
2019-06-07T20:45:45.157Z,62.34
2019-06-07T20:48:25.480Z,61.12
2019-06-07T20:50:59.269Z,61.51
2019-06-07T20:53:32.220Z,59.41
2019-06-07T20:56:09.190Z,58.01
2019-06-07T20:58:42.248Z,57.34
2019-06-07T21:01:16.901Z,57.22
2019-06-07T21:03:55.222Z,57.29
2019-06-07T21:06:27.061Z,57.21
2019-06-07T21:09:08.015Z,56.31
2019-06-07T21:11:53.611Z,56.46
2019-06-07T21:14:36.521Z,56.01
2019-06-07T21:17:11.485Z,57.53
2019-06-07T21:19:42.762Z,57.35
2019-06-07T21:22:15.657Z,57.60
2019-06-07T21:24:49.272Z,59.30
2019-06-07T21:27:23.184Z,58.74
2019-06-07T21:29:55.252Z,57.90
2019-06-07T21:32:30.723Z,58.73
2019-06-07T21:35:21.315Z,58.33
2019-06-07T21:37:55.127Z,59.26
2019-06-07T21:40:30.445Z,58.83
2019-06-07T21:43:04.345Z,58.27
2019-06-07T21:45:38.350Z,57.88
2019-06-07T21:48:14.188Z,57.96
2019-06-07T21:50:49.519Z,58.87
2019-06-07T21:53:25.025Z,59.12
2019-06-07T21:55:57.503Z,59.51
2019-06-07T21:58:31.340Z,59.34
2019-06-07T22:01:24.439Z,58.60
2019-06-07T22:03:57.618Z,58.50
2019-06-07T22:06:33.822Z,57.84
2019-06-07T22:09:09.742Z,58.02
2019-06-07T22:11:52.003Z,58.96
2019-06-07T22:14:39.100Z,58.55
2019-06-07T22:17:21.687Z,57.76
2019-06-07T22:19:55.783Z,57.19
2019-06-07T22:22:29.635Z,56.66
2019-06-07T22:25:15.145Z,56.19
2019-06-07T22:27:48.065Z,56.90
2019-06-07T22:30:20.149Z,59.61
2019-06-07T22:32:52.759Z,59.97
2019-06-07T22:35:25.639Z,59.05
2019-06-07T22:37:58.663Z,58.22
2019-06-07T22:40:31.698Z,57.98
2019-06-07T22:43:07.648Z,58.00
2019-06-07T22:45:40.748Z,57.65
2019-06-07T22:48:13.419Z,57.15
2019-06-07T22:50:45.778Z,56.89
2019-06-07T22:53:18.690Z,56.76
2019-06-07T22:55:58.341Z,56.89
2019-06-07T22:58:31.728Z,57.27
2019-06-07T23:01:04.675Z,57.15
2019-06-07T23:03:37.712Z,56.87
2019-06-07T23:06:11.095Z,56.81
2019-06-07T23:08:44.705Z,56.76
2019-06-07T23:11:17.761Z,57.35
2019-06-07T23:13:50.622Z,57.67
2019-06-07T23:16:21.850Z,58.21
2019-06-07T23:18:53.633Z,59.53
2019-06-07T23:21:27.721Z,60.60
2019-06-07T23:24:01.819Z,60.04
2019-06-07T23:26:34.908Z,59.47
2019-06-07T23:29:07.884Z,59.60
2019-06-07T23:31:43.374Z,59.29
2019-06-07T23:34:16.930Z,58.99
2019-06-07T23:36:50.826Z,59.32
2019-06-07T23:39:23.209Z,58.73
2019-06-07T23:41:54.954Z,58.81
2019-06-07T23:44:27.952Z,58.97
2019-06-07T23:47:10.704Z,58.20
2019-06-07T23:49:35.980Z,57.75
2019-06-07T23:52:09.068Z,57.79
2019-06-07T23:54:40.276Z,58.24
2019-06-07T23:57:12.134Z,58.07
2019-06-07T23:59:44.028Z,58.09
